sensor_id;sensor_type;location;lat;lon;timestamp;P1;durP1;ratioP1;P2;durP2;ratioP2
39098;SDS011;24844;52.380;7.018;2023-04-09T00:01:07;48.92;;;34.38;;
39098;SDS011;24844;52.380;7.018;2023-04-09T00:03:34;48.65;;;33.58;;
39098;SDS011;24844;52.380;7.018;2023-04-09T00:06:00;52.97;;;35.63;;
39098;SDS011;24844;52.380;7.018;2023-04-09T00:08:26;51.17;;;34.38;;
39098;SDS011;24844;52.380;7.018;2023-04-09T00:10:51;47.45;;;34.38;;
39098;SDS011;24844;52.380;7.018;2023-04-09T00:13:17;50.67;;;35.30;;
39098;SDS011;24844;52.380;7.018;2023-04-09T00:15:44;49.05;;;33.38;;
39098;SDS011;24844;52.380;7.018;2023-04-09T00:18:10;54.45;;;37.25;;
39098;SDS011;24844;52.380;7.018;2023-04-09T00:20:36;53.45;;;36.13;;
39098;SDS011;24844;52.380;7.018;2023-04-09T00:23:02;45.38;;;34.15;;
39098;SDS011;24844;52.380;7.018;2023-04-09T00:25:27;55.15;;;36.47;;
39098;SDS011;24844;52.380;7.018;2023-04-09T00:27:53;56.13;;;35.97;;
39098;SDS011;24844;52.380;7.018;2023-04-09T00:30:19;61.95;;;39.00;;
39098;SDS011;24844;52.380;7.018;2023-04-09T00:32:45;56.05;;;37.25;;
39098;SDS011;24844;52.380;7.018;2023-04-09T00:35:11;50.28;;;34.67;;
39098;SDS011;24844;52.380;7.018;2023-04-09T00:37:36;51.17;;;35.75;;
39098;SDS011;24844;52.380;7.018;2023-04-09T00:40:02;58.40;;;38.92;;
39098;SDS011;24844;52.380;7.018;2023-04-09T00:42:34;58.75;;;37.75;;
39098;SDS011;24844;52.380;7.018;2023-04-09T00:45:04;54.45;;;37.15;;
39098;SDS011;24844;52.380;7.018;2023-04-09T00:47:31;52.72;;;35.17;;
39098;SDS011;24844;52.380;7.018;2023-04-09T00:49:57;54.47;;;35.83;;
39098;SDS011;24844;52.380;7.018;2023-04-09T00:52:25;54.00;;;36.30;;
39098;SDS011;24844;52.380;7.018;2023-04-09T00:54:50;48.33;;;34.50;;
39098;SDS011;24844;52.380;7.018;2023-04-09T00:57:16;56.67;;;36.92;;
39098;SDS011;24844;52.380;7.018;2023-04-09T00:59:42;56.88;;;38.33;;
39098;SDS011;24844;52.380;7.018;2023-04-09T01:02:08;51.90;;;36.70;;
39098;SDS011;24844;52.380;7.018;2023-04-09T01:04:34;49.05;;;32.05;;
39098;SDS011;24844;52.380;7.018;2023-04-09T01:07:04;48.47;;;34.20;;
39098;SDS011;24844;52.380;7.018;2023-04-09T01:09:50;50.60;;;35.15;;
39098;SDS011;24844;52.380;7.018;2023-04-09T01:14:58;48.42;;;33.15;;
39098;SDS011;24844;52.380;7.018;2023-04-09T01:17:43;52.20;;;32.00;;
39098;SDS011;24844;52.380;7.018;2023-04-09T01:20:51;49.17;;;34.83;;
39098;SDS011;24844;52.380;7.018;2023-04-09T01:29:17;53.70;;;34.22;;
39098;SDS011;24844;52.380;7.018;2023-04-09T01:31:45;54.97;;;37.60;;
39098;SDS011;24844;52.380;7.018;2023-04-09T01:34:12;45.92;;;31.38;;
39098;SDS011;24844;52.380;7.018;2023-04-09T01:36:39;45.83;;;31.90;;
39098;SDS011;24844;52.380;7.018;2023-04-09T01:39:05;51.83;;;34.95;;
39098;SDS011;24844;52.380;7.018;2023-04-09T01:41:32;55.30;;;37.17;;
39098;SDS011;24844;52.380;7.018;2023-04-09T01:43:59;56.40;;;35.20;;
39098;SDS011;24844;52.380;7.018;2023-04-09T01:46:27;49.13;;;30.80;;
39098;SDS011;24844;52.380;7.018;2023-04-09T01:48:54;51.72;;;36.20;;
39098;SDS011;24844;52.380;7.018;2023-04-09T01:51:20;49.40;;;34.70;;
39098;SDS011;24844;52.380;7.018;2023-04-09T01:53:45;49.95;;;34.58;;
39098;SDS011;24844;52.380;7.018;2023-04-09T01:56:12;60.53;;;39.40;;
39098;SDS011;24844;52.380;7.018;2023-04-09T01:58:37;47.13;;;33.78;;
39098;SDS011;24844;52.380;7.018;2023-04-09T02:03:55;49.88;;;34.78;;
39098;SDS011;24844;52.380;7.018;2023-04-09T02:09:00;50.50;;;35.88;;
39098;SDS011;24844;52.380;7.018;2023-04-09T02:11:31;52.83;;;36.45;;
39098;SDS011;24844;52.380;7.018;2023-04-09T02:13:58;48.33;;;32.83;;
39098;SDS011;24844;52.380;7.018;2023-04-09T02:16:25;59.17;;;39.22;;
39098;SDS011;24844;52.380;7.018;2023-04-09T02:18:52;52.08;;;34.10;;
39098;SDS011;24844;52.380;7.018;2023-04-09T02:21:20;51.72;;;34.65;;
39098;SDS011;24844;52.380;7.018;2023-04-09T02:23:49;50.33;;;34.45;;
39098;SDS011;24844;52.380;7.018;2023-04-09T02:26:14;47.72;;;32.40;;
39098;SDS011;24844;52.380;7.018;2023-04-09T02:28:40;51.05;;;34.95;;
39098;SDS011;24844;52.380;7.018;2023-04-09T02:31:05;47.55;;;32.67;;
39098;SDS011;24844;52.380;7.018;2023-04-09T02:33:31;54.00;;;36.20;;
39098;SDS011;24844;52.380;7.018;2023-04-09T02:35:57;50.10;;;31.83;;
39098;SDS011;24844;52.380;7.018;2023-04-09T02:38:23;52.42;;;34.70;;
39098;SDS011;24844;52.380;7.018;2023-04-09T02:40:48;54.13;;;36.58;;
39098;SDS011;24844;52.380;7.018;2023-04-09T02:43:14;45.38;;;29.80;;
39098;SDS011;24844;52.380;7.018;2023-04-09T02:45:39;47.55;;;34.53;;
39098;SDS011;24844;52.380;7.018;2023-04-09T02:48:05;51.85;;;34.00;;
39098;SDS011;24844;52.380;7.018;2023-04-09T02:50:31;47.97;;;31.73;;
39098;SDS011;24844;52.380;7.018;2023-04-09T02:52:56;43.33;;;29.00;;
39098;SDS011;24844;52.380;7.018;2023-04-09T02:55:22;47.92;;;33.10;;
39098;SDS011;24844;52.380;7.018;2023-04-09T02:57:47;48.35;;;32.33;;
39098;SDS011;24844;52.380;7.018;2023-04-09T03:00:13;49.60;;;33.50;;
39098;SDS011;24844;52.380;7.018;2023-04-09T03:02:39;50.25;;;34.85;;
39098;SDS011;24844;52.380;7.018;2023-04-09T03:05:04;48.05;;;33.67;;
39098;SDS011;24844;52.380;7.018;2023-04-09T03:07:30;51.17;;;33.88;;
39098;SDS011;24844;52.380;7.018;2023-04-09T03:09:56;52.25;;;34.75;;
39098;SDS011;24844;52.380;7.018;2023-04-09T03:12:21;47.72;;;33.78;;
39098;SDS011;24844;52.380;7.018;2023-04-09T03:14:47;47.58;;;32.97;;
39098;SDS011;24844;52.380;7.018;2023-04-09T03:17:13;46.72;;;31.17;;
39098;SDS011;24844;52.380;7.018;2023-04-09T03:19:38;47.63;;;31.50;;
39098;SDS011;24844;52.380;7.018;2023-04-09T03:22:04;48.88;;;33.13;;
39098;SDS011;24844;52.380;7.018;2023-04-09T03:24:30;44.70;;;31.42;;
39098;SDS011;24844;52.380;7.018;2023-04-09T03:26:56;45.55;;;30.10;;
39098;SDS011;24844;52.380;7.018;2023-04-09T03:29:22;44.95;;;31.13;;
39098;SDS011;24844;52.380;7.018;2023-04-09T03:31:47;44.95;;;29.85;;
39098;SDS011;24844;52.380;7.018;2023-04-09T03:34:13;44.65;;;29.90;;
39098;SDS011;24844;52.380;7.018;2023-04-09T03:36:39;42.38;;;28.58;;
39098;SDS011;24844;52.380;7.018;2023-04-09T03:39:05;45.20;;;31.88;;
39098;SDS011;24844;52.380;7.018;2023-04-09T03:41:30;42.95;;;30.23;;
39098;SDS011;24844;52.380;7.018;2023-04-09T03:43:56;40.67;;;29.50;;
39098;SDS011;24844;52.380;7.018;2023-04-09T03:46:21;41.78;;;29.58;;
39098;SDS011;24844;52.380;7.018;2023-04-09T03:48:47;43.67;;;29.65;;
39098;SDS011;24844;52.380;7.018;2023-04-09T03:51:13;44.35;;;30.10;;
39098;SDS011;24844;52.380;7.018;2023-04-09T03:53:40;42.92;;;28.70;;
39098;SDS011;24844;52.380;7.018;2023-04-09T03:56:06;42.08;;;28.60;;
39098;SDS011;24844;52.380;7.018;2023-04-09T03:58:32;42.35;;;29.40;;
39098;SDS011;24844;52.380;7.018;2023-04-09T04:00:58;44.38;;;29.58;;
39098;SDS011;24844;52.380;7.018;2023-04-09T04:03:24;44.35;;;29.27;;
39098;SDS011;24844;52.380;7.018;2023-04-09T04:05:50;43.80;;;29.23;;
39098;SDS011;24844;52.380;7.018;2023-04-09T04:08:15;46.92;;;30.08;;
39098;SDS011;24844;52.380;7.018;2023-04-09T04:10:41;41.95;;;28.77;;
39098;SDS011;24844;52.380;7.018;2023-04-09T04:13:06;47.75;;;30.55;;
39098;SDS011;24844;52.380;7.018;2023-04-09T04:15:33;50.38;;;31.90;;
39098;SDS011;24844;52.380;7.018;2023-04-09T04:18:08;47.45;;;30.75;;
39098;SDS011;24844;52.380;7.018;2023-04-09T04:20:34;49.78;;;30.85;;
39098;SDS011;24844;52.380;7.018;2023-04-09T04:23:01;48.78;;;30.80;;
39098;SDS011;24844;52.380;7.018;2023-04-09T04:25:27;48.28;;;31.02;;
39098;SDS011;24844;52.380;7.018;2023-04-09T04:27:52;54.42;;;33.13;;
39098;SDS011;24844;52.380;7.018;2023-04-09T04:30:19;50.05;;;32.63;;
39098;SDS011;24844;52.380;7.018;2023-04-09T04:32:45;55.63;;;34.83;;
39098;SDS011;24844;52.380;7.018;2023-04-09T04:35:11;57.03;;;35.10;;
39098;SDS011;24844;52.380;7.018;2023-04-09T04:37:37;55.00;;;34.88;;
39098;SDS011;24844;52.380;7.018;2023-04-09T04:40:04;55.20;;;34.45;;
39098;SDS011;24844;52.380;7.018;2023-04-09T04:42:31;59.67;;;35.47;;
39098;SDS011;24844;52.380;7.018;2023-04-09T04:44:56;63.85;;;36.00;;
39098;SDS011;24844;52.380;7.018;2023-04-09T04:47:22;57.88;;;35.97;;
39098;SDS011;24844;52.380;7.018;2023-04-09T04:49:47;59.83;;;35.22;;
39098;SDS011;24844;52.380;7.018;2023-04-09T04:52:13;58.47;;;33.53;;
39098;SDS011;24844;52.380;7.018;2023-04-09T04:54:38;58.97;;;35.20;;
39098;SDS011;24844;52.380;7.018;2023-04-09T04:57:04;62.95;;;36.47;;
39098;SDS011;24844;52.380;7.018;2023-04-09T04:59:30;63.25;;;37.97;;
39098;SDS011;24844;52.380;7.018;2023-04-09T05:01:55;66.25;;;37.15;;
39098;SDS011;24844;52.380;7.018;2023-04-09T05:04:21;67.88;;;38.22;;
39098;SDS011;24844;52.380;7.018;2023-04-09T05:06:47;73.15;;;41.58;;
39098;SDS011;24844;52.380;7.018;2023-04-09T05:09:12;85.18;;;45.92;;
39098;SDS011;24844;52.380;7.018;2023-04-09T05:11:38;75.22;;;42.40;;
39098;SDS011;24844;52.380;7.018;2023-04-09T05:14:03;396.85;;;71.00;;
39098;SDS011;24844;52.380;7.018;2023-04-09T05:16:30;81.30;;;43.33;;
39098;SDS011;24844;52.380;7.018;2023-04-09T05:18:55;78.95;;;42.47;;
39098;SDS011;24844;52.380;7.018;2023-04-09T05:21:21;84.53;;;44.05;;
39098;SDS011;24844;52.380;7.018;2023-04-09T05:23:46;81.85;;;43.53;;
39098;SDS011;24844;52.380;7.018;2023-04-09T05:26:12;87.60;;;46.70;;
39098;SDS011;24844;52.380;7.018;2023-04-09T05:28:37;86.70;;;45.42;;
39098;SDS011;24844;52.380;7.018;2023-04-09T05:31:03;92.72;;;49.50;;
39098;SDS011;24844;52.380;7.018;2023-04-09T05:33:29;80.93;;;43.80;;
39098;SDS011;24844;52.380;7.018;2023-04-09T05:35:56;98.53;;;52.95;;
39098;SDS011;24844;52.380;7.018;2023-04-09T05:38:22;101.60;;;53.05;;
39098;SDS011;24844;52.380;7.018;2023-04-09T05:40:47;105.70;;;54.10;;
39098;SDS011;24844;52.380;7.018;2023-04-09T05:43:13;101.05;;;51.92;;
39098;SDS011;24844;52.380;7.018;2023-04-09T05:45:38;94.72;;;50.08;;
39098;SDS011;24844;52.380;7.018;2023-04-09T05:48:04;92.70;;;50.70;;
39098;SDS011;24844;52.380;7.018;2023-04-09T05:50:30;89.43;;;47.58;;
39098;SDS011;24844;52.380;7.018;2023-04-09T05:52:55;88.82;;;47.17;;
39098;SDS011;24844;52.380;7.018;2023-04-09T05:55:21;82.18;;;47.03;;
39098;SDS011;24844;52.380;7.018;2023-04-09T05:57:46;85.10;;;46.53;;
39098;SDS011;24844;52.380;7.018;2023-04-09T06:00:12;85.10;;;46.80;;
39098;SDS011;24844;52.380;7.018;2023-04-09T06:02:39;94.07;;;52.10;;
39098;SDS011;24844;52.380;7.018;2023-04-09T06:05:05;102.53;;;54.85;;
39098;SDS011;24844;52.380;7.018;2023-04-09T06:07:30;104.07;;;57.55;;
39098;SDS011;24844;52.380;7.018;2023-04-09T06:09:56;97.40;;;55.17;;
39098;SDS011;24844;52.380;7.018;2023-04-09T06:12:22;96.55;;;52.75;;
39098;SDS011;24844;52.380;7.018;2023-04-09T06:14:47;91.68;;;53.40;;
39098;SDS011;24844;52.380;7.018;2023-04-09T06:17:13;91.50;;;52.10;;
39098;SDS011;24844;52.380;7.018;2023-04-09T06:19:38;100.68;;;54.97;;
39098;SDS011;24844;52.380;7.018;2023-04-09T06:22:04;77.35;;;45.35;;
39098;SDS011;24844;52.380;7.018;2023-04-09T06:24:30;91.90;;;54.40;;
39098;SDS011;24844;52.380;7.018;2023-04-09T06:26:57;85.60;;;51.00;;
39098;SDS011;24844;52.380;7.018;2023-04-09T06:29:22;88.53;;;51.72;;
39098;SDS011;24844;52.380;7.018;2023-04-09T06:31:48;75.07;;;44.35;;
39098;SDS011;24844;52.380;7.018;2023-04-09T06:34:14;82.43;;;48.83;;
39098;SDS011;24844;52.380;7.018;2023-04-09T06:36:39;70.72;;;42.40;;
39098;SDS011;24844;52.380;7.018;2023-04-09T06:39:05;76.75;;;44.17;;
39098;SDS011;24844;52.380;7.018;2023-04-09T06:41:31;72.50;;;43.00;;
39098;SDS011;24844;52.380;7.018;2023-04-09T06:43:57;70.57;;;42.72;;
39098;SDS011;24844;52.380;7.018;2023-04-09T06:46:23;67.78;;;42.88;;
39098;SDS011;24844;52.380;7.018;2023-04-09T06:48:48;74.78;;;45.80;;
39098;SDS011;24844;52.380;7.018;2023-04-09T06:51:14;114.10;;;42.55;;
39098;SDS011;24844;52.380;7.018;2023-04-09T06:53:40;72.68;;;44.35;;
39098;SDS011;24844;52.380;7.018;2023-04-09T06:56:06;61.03;;;37.92;;
39098;SDS011;24844;52.380;7.018;2023-04-09T06:58:32;68.45;;;42.53;;
39098;SDS011;24844;52.380;7.018;2023-04-09T07:00:58;66.57;;;40.53;;
39098;SDS011;24844;52.380;7.018;2023-04-09T07:03:23;68.93;;;42.33;;
39098;SDS011;24844;52.380;7.018;2023-04-09T07:05:51;64.73;;;39.13;;
39098;SDS011;24844;52.380;7.018;2023-04-09T07:08:17;61.63;;;39.28;;
39098;SDS011;24844;52.380;7.018;2023-04-09T07:10:43;62.42;;;40.22;;
39098;SDS011;24844;52.380;7.018;2023-04-09T07:13:11;57.10;;;36.33;;
39098;SDS011;24844;52.380;7.018;2023-04-09T07:15:37;64.40;;;42.28;;
39098;SDS011;24844;52.380;7.018;2023-04-09T07:18:02;62.42;;;40.08;;
39098;SDS011;24844;52.380;7.018;2023-04-09T07:20:28;63.15;;;38.17;;
39098;SDS011;24844;52.380;7.018;2023-04-09T07:22:54;61.65;;;40.72;;
39098;SDS011;24844;52.380;7.018;2023-04-09T07:25:19;60.92;;;34.25;;
39098;SDS011;24844;52.380;7.018;2023-04-09T07:27:45;59.33;;;36.50;;
39098;SDS011;24844;52.380;7.018;2023-04-09T07:30:11;63.47;;;37.83;;
39098;SDS011;24844;52.380;7.018;2023-04-09T07:32:36;97.03;;;40.30;;
39098;SDS011;24844;52.380;7.018;2023-04-09T07:35:03;209.07;;;44.28;;
39098;SDS011;24844;52.380;7.018;2023-04-09T07:37:31;57.70;;;36.70;;
39098;SDS011;24844;52.380;7.018;2023-04-09T07:39:57;60.45;;;38.17;;
39098;SDS011;24844;52.380;7.018;2023-04-09T07:42:23;54.53;;;35.10;;
39098;SDS011;24844;52.380;7.018;2023-04-09T07:44:48;56.75;;;36.85;;
39098;SDS011;24844;52.380;7.018;2023-04-09T07:47:14;54.70;;;36.05;;
39098;SDS011;24844;52.380;7.018;2023-04-09T07:49:40;52.88;;;35.00;;
39098;SDS011;24844;52.380;7.018;2023-04-09T07:52:06;50.15;;;33.60;;
39098;SDS011;24844;52.380;7.018;2023-04-09T07:54:32;55.58;;;36.92;;
39098;SDS011;24844;52.380;7.018;2023-04-09T07:56:59;49.05;;;32.38;;
39098;SDS011;24844;52.380;7.018;2023-04-09T07:59:25;48.80;;;31.77;;
39098;SDS011;24844;52.380;7.018;2023-04-09T08:01:52;45.95;;;32.70;;
39098;SDS011;24844;52.380;7.018;2023-04-09T08:04:17;45.25;;;31.70;;
39098;SDS011;24844;52.380;7.018;2023-04-09T08:06:43;44.50;;;30.35;;
39098;SDS011;24844;52.380;7.018;2023-04-09T08:09:14;43.85;;;30.30;;
39098;SDS011;24844;52.380;7.018;2023-04-09T08:11:40;44.75;;;32.05;;
39098;SDS011;24844;52.380;7.018;2023-04-09T08:14:06;43.92;;;29.92;;
39098;SDS011;24844;52.380;7.018;2023-04-09T08:16:36;41.28;;;31.23;;
39098;SDS011;24844;52.380;7.018;2023-04-09T08:19:07;43.55;;;30.77;;
39098;SDS011;24844;52.380;7.018;2023-04-09T08:21:33;41.58;;;30.83;;
39098;SDS011;24844;52.380;7.018;2023-04-09T08:24:00;46.03;;;34.22;;
39098;SDS011;24844;52.380;7.018;2023-04-09T08:26:28;33.20;;;25.83;;
39098;SDS011;24844;52.380;7.018;2023-04-09T08:28:54;40.42;;;29.13;;
39098;SDS011;24844;52.380;7.018;2023-04-09T08:31:20;38.45;;;28.98;;
39098;SDS011;24844;52.380;7.018;2023-04-09T08:33:46;34.13;;;27.77;;
39098;SDS011;24844;52.380;7.018;2023-04-09T08:36:11;34.25;;;25.40;;
39098;SDS011;24844;52.380;7.018;2023-04-09T08:38:37;35.50;;;25.33;;
39098;SDS011;24844;52.380;7.018;2023-04-09T08:41:03;39.55;;;28.63;;
39098;SDS011;24844;52.380;7.018;2023-04-09T08:43:29;37.65;;;27.45;;
39098;SDS011;24844;52.380;7.018;2023-04-09T08:45:58;39.78;;;28.15;;
39098;SDS011;24844;52.380;7.018;2023-04-09T08:48:24;34.20;;;25.65;;
39098;SDS011;24844;52.380;7.018;2023-04-09T08:50:50;34.15;;;24.67;;
39098;SDS011;24844;52.380;7.018;2023-04-09T08:53:16;32.80;;;25.17;;
39098;SDS011;24844;52.380;7.018;2023-04-09T08:55:46;33.20;;;25.58;;
39098;SDS011;24844;52.380;7.018;2023-04-09T08:58:12;32.60;;;24.45;;
39098;SDS011;24844;52.380;7.018;2023-04-09T09:00:38;32.33;;;23.63;;
39098;SDS011;24844;52.380;7.018;2023-04-09T09:08:01;31.17;;;24.02;;
39098;SDS011;24844;52.380;7.018;2023-04-09T09:10:36;31.17;;;22.90;;
39098;SDS011;24844;52.380;7.018;2023-04-09T09:13:12;28.88;;;22.73;;
39098;SDS011;24844;52.380;7.018;2023-04-09T09:15:40;29.75;;;22.60;;
39098;SDS011;24844;52.380;7.018;2023-04-09T09:18:06;30.63;;;24.58;;
39098;SDS011;24844;52.380;7.018;2023-04-09T09:20:31;31.35;;;25.10;;
39098;SDS011;24844;52.380;7.018;2023-04-09T09:22:57;28.20;;;21.42;;
39098;SDS011;24844;52.380;7.018;2023-04-09T09:25:23;31.05;;;22.13;;
39098;SDS011;24844;52.380;7.018;2023-04-09T09:27:50;27.23;;;21.13;;
39098;SDS011;24844;52.380;7.018;2023-04-09T09:30:23;25.60;;;20.02;;
39098;SDS011;24844;52.380;7.018;2023-04-09T09:35:19;23.55;;;18.40;;
39098;SDS011;24844;52.380;7.018;2023-04-09T09:37:45;23.20;;;16.70;;
39098;SDS011;24844;52.380;7.018;2023-04-09T09:40:10;23.13;;;17.75;;
39098;SDS011;24844;52.380;7.018;2023-04-09T09:42:54;21.45;;;16.73;;
39098;SDS011;24844;52.380;7.018;2023-04-09T09:45:21;21.92;;;16.08;;
39098;SDS011;24844;52.380;7.018;2023-04-09T09:47:48;21.42;;;17.35;;
39098;SDS011;24844;52.380;7.018;2023-04-09T09:50:13;18.83;;;15.07;;
39098;SDS011;24844;52.380;7.018;2023-04-09T09:52:39;20.15;;;15.57;;
39098;SDS011;24844;52.380;7.018;2023-04-09T09:55:08;16.83;;;13.18;;
39098;SDS011;24844;52.380;7.018;2023-04-09T09:57:38;18.70;;;13.82;;
39098;SDS011;24844;52.380;7.018;2023-04-09T10:00:06;20.17;;;14.35;;
39098;SDS011;24844;52.380;7.018;2023-04-09T10:02:47;18.98;;;15.30;;
39098;SDS011;24844;52.380;7.018;2023-04-09T10:05:20;21.95;;;15.38;;
39098;SDS011;24844;52.380;7.018;2023-04-09T10:07:50;20.42;;;15.13;;
39098;SDS011;24844;52.380;7.018;2023-04-09T10:10:18;18.10;;;13.48;;
39098;SDS011;24844;52.380;7.018;2023-04-09T10:12:45;16.60;;;12.63;;
39098;SDS011;24844;52.380;7.018;2023-04-09T10:15:11;14.32;;;11.13;;
39098;SDS011;24844;52.380;7.018;2023-04-09T10:17:37;12.23;;;9.60;;
39098;SDS011;24844;52.380;7.018;2023-04-09T10:22:36;14.55;;;10.57;;
39098;SDS011;24844;52.380;7.018;2023-04-09T10:25:03;13.60;;;10.23;;
39098;SDS011;24844;52.380;7.018;2023-04-09T10:27:30;16.08;;;11.43;;
39098;SDS011;24844;52.380;7.018;2023-04-09T10:29:56;13.50;;;10.95;;
39098;SDS011;24844;52.380;7.018;2023-04-09T10:32:24;16.10;;;11.07;;
39098;SDS011;24844;52.380;7.018;2023-04-09T10:34:50;13.05;;;10.23;;
39098;SDS011;24844;52.380;7.018;2023-04-09T10:37:20;11.02;;;9.18;;
39098;SDS011;24844;52.380;7.018;2023-04-09T10:39:47;15.23;;;11.35;;
39098;SDS011;24844;52.380;7.018;2023-04-09T10:42:19;14.57;;;12.25;;
39098;SDS011;24844;52.380;7.018;2023-04-09T10:45:05;14.25;;;11.52;;
39098;SDS011;24844;52.380;7.018;2023-04-09T10:47:33;14.05;;;10.60;;
39098;SDS011;24844;52.380;7.018;2023-04-09T10:50:16;14.20;;;11.50;;
39098;SDS011;24844;52.380;7.018;2023-04-09T10:52:47;14.85;;;11.95;;
39098;SDS011;24844;52.380;7.018;2023-04-09T10:55:35;13.75;;;10.38;;
39098;SDS011;24844;52.380;7.018;2023-04-09T10:58:06;15.30;;;11.90;;
39098;SDS011;24844;52.380;7.018;2023-04-09T11:00:40;14.52;;;11.88;;
39098;SDS011;24844;52.380;7.018;2023-04-09T11:05:41;14.63;;;10.95;;
39098;SDS011;24844;52.380;7.018;2023-04-09T11:08:11;12.98;;;10.70;;
39098;SDS011;24844;52.380;7.018;2023-04-09T11:10:38;13.70;;;10.88;;
39098;SDS011;24844;52.380;7.018;2023-04-09T11:13:06;13.05;;;11.02;;
39098;SDS011;24844;52.380;7.018;2023-04-09T11:15:35;14.90;;;11.15;;
39098;SDS011;24844;52.380;7.018;2023-04-09T11:18:01;13.82;;;10.60;;
39098;SDS011;24844;52.380;7.018;2023-04-09T11:20:27;14.68;;;10.63;;
39098;SDS011;24844;52.380;7.018;2023-04-09T11:22:55;15.45;;;11.15;;
39098;SDS011;24844;52.380;7.018;2023-04-09T11:25:24;15.43;;;10.82;;
39098;SDS011;24844;52.380;7.018;2023-04-09T11:27:51;13.75;;;11.52;;
39098;SDS011;24844;52.380;7.018;2023-04-09T11:30:18;15.35;;;11.25;;
39098;SDS011;24844;52.380;7.018;2023-04-09T11:32:44;15.18;;;11.70;;
39098;SDS011;24844;52.380;7.018;2023-04-09T11:35:14;15.07;;;11.90;;
39098;SDS011;24844;52.380;7.018;2023-04-09T11:37:44;16.60;;;12.40;;
39098;SDS011;24844;52.380;7.018;2023-04-09T11:40:17;14.05;;;10.38;;
39098;SDS011;24844;52.380;7.018;2023-04-09T11:42:48;14.27;;;10.73;;
39098;SDS011;24844;52.380;7.018;2023-04-09T11:45:15;14.95;;;11.60;;
39098;SDS011;24844;52.380;7.018;2023-04-09T11:47:42;14.77;;;11.25;;
39098;SDS011;24844;52.380;7.018;2023-04-09T11:50:08;15.23;;;10.70;;
39098;SDS011;24844;52.380;7.018;2023-04-09T11:52:35;16.13;;;9.93;;
39098;SDS011;24844;52.380;7.018;2023-04-09T11:55:02;15.98;;;11.20;;
39098;SDS011;24844;52.380;7.018;2023-04-09T11:57:38;15.68;;;11.40;;
39098;SDS011;24844;52.380;7.018;2023-04-09T12:00:09;14.27;;;9.65;;
39098;SDS011;24844;52.380;7.018;2023-04-09T12:02:40;15.07;;;10.75;;
39098;SDS011;24844;52.380;7.018;2023-04-09T12:05:10;15.80;;;11.35;;
39098;SDS011;24844;52.380;7.018;2023-04-09T12:07:38;16.80;;;11.75;;
39098;SDS011;24844;52.380;7.018;2023-04-09T12:10:07;14.57;;;11.65;;
39098;SDS011;24844;52.380;7.018;2023-04-09T12:12:44;15.20;;;10.98;;
39098;SDS011;24844;52.380;7.018;2023-04-09T12:17:45;12.95;;;7.53;;
39098;SDS011;24844;52.380;7.018;2023-04-09T12:20:37;14.75;;;10.35;;
39098;SDS011;24844;52.380;7.018;2023-04-09T12:23:08;13.80;;;8.40;;
39098;SDS011;24844;52.380;7.018;2023-04-09T12:25:36;14.27;;;10.30;;
39098;SDS011;24844;52.380;7.018;2023-04-09T12:28:07;15.57;;;10.52;;
39098;SDS011;24844;52.380;7.018;2023-04-09T12:30:34;13.38;;;10.13;;
39098;SDS011;24844;52.380;7.018;2023-04-09T12:33:00;16.40;;;12.13;;
39098;SDS011;24844;52.380;7.018;2023-04-09T12:35:27;17.27;;;11.52;;
39098;SDS011;24844;52.380;7.018;2023-04-09T12:37:53;13.60;;;10.20;;
39098;SDS011;24844;52.380;7.018;2023-04-09T12:40:19;13.25;;;10.07;;
39098;SDS011;24844;52.380;7.018;2023-04-09T12:42:45;13.32;;;10.25;;
39098;SDS011;24844;52.380;7.018;2023-04-09T12:45:12;17.30;;;11.48;;
39098;SDS011;24844;52.380;7.018;2023-04-09T12:50:05;19.75;;;10.55;;
39098;SDS011;24844;52.380;7.018;2023-04-09T12:52:32;15.27;;;10.90;;
39098;SDS011;24844;52.380;7.018;2023-04-09T12:54:58;15.20;;;9.77;;
39098;SDS011;24844;52.380;7.018;2023-04-09T12:57:25;14.65;;;10.93;;
39098;SDS011;24844;52.380;7.018;2023-04-09T12:59:51;14.68;;;10.55;;
39098;SDS011;24844;52.380;7.018;2023-04-09T13:02:17;17.42;;;11.60;;
39098;SDS011;24844;52.380;7.018;2023-04-09T13:04:43;14.35;;;11.25;;
39098;SDS011;24844;52.380;7.018;2023-04-09T13:07:08;15.93;;;11.13;;
39098;SDS011;24844;52.380;7.018;2023-04-09T13:09:35;18.25;;;11.88;;
39098;SDS011;24844;52.380;7.018;2023-04-09T13:12:01;18.30;;;12.45;;
39098;SDS011;24844;52.380;7.018;2023-04-09T13:14:27;16.77;;;11.13;;
39098;SDS011;24844;52.380;7.018;2023-04-09T13:16:52;14.50;;;10.13;;
39098;SDS011;24844;52.380;7.018;2023-04-09T13:19:18;17.10;;;11.07;;
39098;SDS011;24844;52.380;7.018;2023-04-09T13:21:44;14.45;;;10.65;;
39098;SDS011;24844;52.380;7.018;2023-04-09T13:24:10;15.18;;;11.60;;
39098;SDS011;24844;52.380;7.018;2023-04-09T13:26:35;15.63;;;9.05;;
39098;SDS011;24844;52.380;7.018;2023-04-09T13:29:01;16.15;;;11.43;;
39098;SDS011;24844;52.380;7.018;2023-04-09T13:31:28;16.60;;;12.23;;
39098;SDS011;24844;52.380;7.018;2023-04-09T13:33:53;13.68;;;10.32;;
39098;SDS011;24844;52.380;7.018;2023-04-09T13:36:19;13.95;;;9.77;;
39098;SDS011;24844;52.380;7.018;2023-04-09T13:38:45;15.23;;;11.25;;
39098;SDS011;24844;52.380;7.018;2023-04-09T13:41:10;13.80;;;10.55;;
39098;SDS011;24844;52.380;7.018;2023-04-09T13:43:36;15.45;;;10.63;;
39098;SDS011;24844;52.380;7.018;2023-04-09T13:46:02;19.48;;;11.55;;
39098;SDS011;24844;52.380;7.018;2023-04-09T13:48:28;16.02;;;10.77;;
39098;SDS011;24844;52.380;7.018;2023-04-09T13:50:54;15.60;;;10.93;;
39098;SDS011;24844;52.380;7.018;2023-04-09T13:53:20;16.33;;;10.75;;
39098;SDS011;24844;52.380;7.018;2023-04-09T13:55:49;14.45;;;11.30;;
39098;SDS011;24844;52.380;7.018;2023-04-09T13:58:14;15.15;;;11.45;;
39098;SDS011;24844;52.380;7.018;2023-04-09T14:00:40;15.95;;;11.45;;
39098;SDS011;24844;52.380;7.018;2023-04-09T14:03:06;12.57;;;7.32;;
39098;SDS011;24844;52.380;7.018;2023-04-09T14:05:31;14.77;;;12.00;;
39098;SDS011;24844;52.380;7.018;2023-04-09T14:07:57;14.30;;;11.05;;
39098;SDS011;24844;52.380;7.018;2023-04-09T14:10:23;13.77;;;10.50;;
39098;SDS011;24844;52.380;7.018;2023-04-09T14:12:48;14.57;;;10.90;;
39098;SDS011;24844;52.380;7.018;2023-04-09T14:15:14;14.50;;;11.18;;
39098;SDS011;24844;52.380;7.018;2023-04-09T14:17:41;13.40;;;10.40;;
39098;SDS011;24844;52.380;7.018;2023-04-09T14:20:07;14.57;;;10.90;;
39098;SDS011;24844;52.380;7.018;2023-04-09T14:22:33;14.80;;;11.82;;
39098;SDS011;24844;52.380;7.018;2023-04-09T14:24:58;14.55;;;10.95;;
39098;SDS011;24844;52.380;7.018;2023-04-09T14:27:24;13.43;;;11.20;;
39098;SDS011;24844;52.380;7.018;2023-04-09T14:29:50;13.55;;;11.55;;
39098;SDS011;24844;52.380;7.018;2023-04-09T14:32:17;14.65;;;12.02;;
39098;SDS011;24844;52.380;7.018;2023-04-09T14:34:43;14.65;;;10.57;;
39098;SDS011;24844;52.380;7.018;2023-04-09T14:37:08;13.38;;;10.27;;
39098;SDS011;24844;52.380;7.018;2023-04-09T14:39:34;13.05;;;9.80;;
39098;SDS011;24844;52.380;7.018;2023-04-09T14:42:00;16.10;;;10.63;;
39098;SDS011;24844;52.380;7.018;2023-04-09T14:44:26;13.85;;;10.32;;
39098;SDS011;24844;52.380;7.018;2023-04-09T14:46:51;14.15;;;9.88;;
39098;SDS011;24844;52.380;7.018;2023-04-09T14:49:19;13.57;;;10.65;;
39098;SDS011;24844;52.380;7.018;2023-04-09T14:51:45;12.15;;;9.77;;